createdAt,value
2022-09-29T00:00:45.253Z,9.00
2022-09-29T00:03:11.971Z,9.00
2022-09-29T00:05:38.660Z,9.00
2022-09-29T00:08:05.312Z,9.00
2022-09-29T00:10:32.017Z,9.00
2022-09-29T00:12:58.681Z,9.00
2022-09-29T00:15:25.353Z,8.90
2022-09-29T00:18:12.784Z,8.90
2022-09-29T00:20:38.988Z,9.00
2022-09-29T00:23:05.737Z,8.90
2022-09-29T00:25:32.531Z,8.90
2022-09-29T00:27:59.204Z,8.90
2022-09-29T00:30:26.017Z,8.90
2022-09-29T00:32:52.678Z,8.80
2022-09-29T00:35:19.491Z,8.80
2022-09-29T00:37:46.226Z,8.80
2022-09-29T00:40:12.877Z,8.80
2022-09-29T00:42:39.604Z,8.80
2022-09-29T00:45:20.158Z,8.80
2022-09-29T00:47:53.205Z,8.80
2022-09-29T00:50:27.361Z,8.80
2022-09-29T00:53:02.457Z,8.80
2022-09-29T00:55:39.384Z,8.70
2022-09-29T00:58:19.663Z,8.70
2022-09-29T01:00:46.440Z,8.60
2022-09-29T01:03:20.197Z,8.60
2022-09-29T01:05:52.222Z,8.60
2022-09-29T01:08:28.516Z,8.60
2022-09-29T01:10:57.152Z,8.50
2022-09-29T01:13:24.715Z,8.50
2022-09-29T01:15:51.432Z,8.50
2022-09-29T01:18:18.298Z,8.50
2022-09-29T01:20:56.741Z,8.50
2022-09-29T01:23:57.520Z,8.50
2022-09-29T01:27:15.082Z,8.50
2022-09-29T01:29:56.574Z,8.40
2022-09-29T01:33:01.645Z,8.40
2022-09-29T01:35:50.423Z,8.30
2022-09-29T01:38:54.729Z,8.20
2022-09-29T01:41:29.352Z,8.30
2022-09-29T01:43:59.353Z,8.20
2022-09-29T01:46:44.190Z,8.20
2022-09-29T01:49:12.939Z,8.30
2022-09-29T01:52:08.467Z,8.30
2022-09-29T01:54:46.080Z,8.40
2022-09-29T01:57:29.124Z,8.40
2022-09-29T02:00:09.159Z,8.40
2022-09-29T02:02:47.354Z,8.30
2022-09-29T02:05:19.821Z,8.30
2022-09-29T02:07:48.102Z,8.30
2022-09-29T02:10:21.221Z,8.30
2022-09-29T02:12:51.255Z,8.30
2022-09-29T02:15:23.931Z,8.20
2022-09-29T02:17:53.128Z,8.20
2022-09-29T02:20:20.265Z,8.20
2022-09-29T02:22:47.212Z,8.10
2022-09-29T02:25:16.243Z,8.10
2022-09-29T02:27:43.430Z,8.10
2022-09-29T02:30:11.190Z,8.10
2022-09-29T02:32:37.970Z,8.10
2022-09-29T02:35:08.983Z,8.10
2022-09-29T02:37:41.196Z,8.10
2022-09-29T02:40:35.933Z,8.10
2022-09-29T02:43:17.658Z,8.10
2022-09-29T02:45:44.316Z,8.00
2022-09-29T02:48:23.135Z,8.00
2022-09-29T02:51:20.679Z,8.00
2022-09-29T02:54:25.414Z,8.00
2022-09-29T02:57:30.529Z,8.00
2022-09-29T03:00:11.407Z,7.90
2022-09-29T03:02:39.776Z,7.90
2022-09-29T03:05:11.731Z,7.90
2022-09-29T03:07:38.740Z,7.90
2022-09-29T03:10:07.046Z,7.90
2022-09-29T03:12:34.490Z,7.80
2022-09-29T03:15:01.142Z,7.80
2022-09-29T03:17:27.834Z,7.80
2022-09-29T03:19:54.548Z,7.80
2022-09-29T03:22:21.179Z,7.80
2022-09-29T03:24:47.822Z,7.70
2022-09-29T03:27:14.604Z,7.80
2022-09-29T03:29:41.675Z,7.80
2022-09-29T03:32:08.402Z,7.80
2022-09-29T03:34:35.707Z,7.80
2022-09-29T03:37:03.356Z,7.80
2022-09-29T03:39:30.032Z,7.80
2022-09-29T03:41:56.701Z,7.70
2022-09-29T03:44:23.415Z,7.70
2022-09-29T03:46:50.060Z,7.70
2022-09-29T03:49:16.901Z,7.70
2022-09-29T03:51:43.855Z,7.70
2022-09-29T03:54:11.164Z,7.70
2022-09-29T03:56:38.480Z,7.70
2022-09-29T03:59:09.394Z,7.60
2022-09-29T04:01:38.133Z,7.70
2022-09-29T04:04:06.802Z,7.60
2022-09-29T04:06:33.912Z,7.60
2022-09-29T04:09:00.602Z,7.60
2022-09-29T04:11:27.588Z,7.60
2022-09-29T04:13:54.448Z,7.60
2022-09-29T04:16:21.216Z,7.50
2022-09-29T04:18:48.006Z,7.50
2022-09-29T04:21:14.926Z,7.50
2022-09-29T04:23:41.731Z,7.50
2022-09-29T04:26:08.372Z,7.50
2022-09-29T04:28:36.638Z,7.50
2022-09-29T04:31:04.043Z,7.50
2022-09-29T04:33:31.247Z,7.50
2022-09-29T04:35:59.277Z,7.50
2022-09-29T04:38:26.303Z,7.50
2022-09-29T04:40:53.185Z,7.40
2022-09-29T04:43:20.129Z,7.40
2022-09-29T04:45:46.906Z,7.40
2022-09-29T04:48:13.665Z,7.40
2022-09-29T04:50:40.578Z,7.40
2022-09-29T04:53:08.045Z,7.40
2022-09-29T04:55:36.660Z,7.40
2022-09-29T04:58:03.378Z,7.40
2022-09-29T05:00:31.960Z,7.40
2022-09-29T05:02:58.718Z,7.30
2022-09-29T05:05:25.388Z,7.30
2022-09-29T05:07:52.010Z,7.20
2022-09-29T05:10:18.676Z,7.20
2022-09-29T05:12:50.237Z,7.20
2022-09-29T05:15:22.263Z,7.20
2022-09-29T05:17:51.714Z,7.20
2022-09-29T05:20:18.437Z,7.20
2022-09-29T05:22:45.134Z,7.20
2022-09-29T05:25:12.051Z,7.20
2022-09-29T05:27:38.698Z,7.20
2022-09-29T05:30:06.045Z,7.20
2022-09-29T05:32:32.702Z,7.10
2022-09-29T05:34:59.829Z,7.10
2022-09-29T05:37:26.497Z,7.10
2022-09-29T05:39:53.194Z,7.10
2022-09-29T05:42:20.469Z,7.10
2022-09-29T05:44:47.193Z,7.10
2022-09-29T05:47:13.821Z,7.00
2022-09-29T05:49:40.505Z,7.00
2022-09-29T05:52:07.493Z,7.00
2022-09-29T05:54:34.210Z,7.00
2022-09-29T05:57:00.843Z,7.00
2022-09-29T05:59:27.836Z,7.00
2022-09-29T06:01:54.612Z,7.00
2022-09-29T06:04:21.329Z,7.00
2022-09-29T06:06:48.349Z,7.10
2022-09-29T06:09:15.332Z,7.10
2022-09-29T06:11:42.176Z,7.10
2022-09-29T06:14:08.882Z,7.10
2022-09-29T06:16:35.896Z,7.10
2022-09-29T06:19:03.516Z,7.20
2022-09-29T06:21:31.810Z,7.20
2022-09-29T06:23:58.958Z,7.20
2022-09-29T06:26:27.112Z,7.30
2022-09-29T06:28:55.112Z,7.30
2022-09-29T06:31:24.385Z,7.40
2022-09-29T06:33:51.368Z,7.40
2022-09-29T06:37:01.797Z,7.50
2022-09-29T06:39:28.984Z,7.50
2022-09-29T06:41:56.465Z,7.50
2022-09-29T06:44:25.913Z,7.60
2022-09-29T06:46:53.265Z,7.70
2022-09-29T06:49:20.579Z,7.70
2022-09-29T06:51:47.938Z,7.70
2022-09-29T06:54:16.734Z,7.80
2022-09-29T06:56:46.468Z,7.90
2022-09-29T06:59:13.304Z,7.90
2022-09-29T07:01:40.104Z,8.00
2022-09-29T07:04:07.420Z,8.00
2022-09-29T07:06:34.820Z,8.00
2022-09-29T07:09:01.536Z,8.00
2022-09-29T07:11:28.957Z,8.10
2022-09-29T07:13:55.778Z,8.10
2022-09-29T07:16:26.348Z,8.20
2022-09-29T07:18:53.514Z,8.20
2022-09-29T07:21:21.395Z,8.30
2022-09-29T07:23:48.445Z,8.30
2022-09-29T07:26:17.039Z,8.40
2022-09-29T07:28:44.796Z,8.50
2022-09-29T07:31:15.789Z,8.70
2022-09-29T07:33:43.720Z,8.80
2022-09-29T07:36:10.719Z,8.90
2022-09-29T07:38:37.376Z,9.00
2022-09-29T07:41:10.009Z,9.10
2022-09-29T07:43:37.200Z,9.20
2022-09-29T07:46:04.594Z,9.30
2022-09-29T07:48:32.635Z,9.40
2022-09-29T07:51:03.523Z,9.40
2022-09-29T07:53:31.222Z,9.40
2022-09-29T07:56:09.267Z,9.60
2022-09-29T07:58:37.460Z,9.70
2022-09-29T08:01:06.672Z,9.90
2022-09-29T08:03:33.972Z,9.90
2022-09-29T08:06:00.597Z,10.00
2022-09-29T08:08:27.378Z,10.00
2022-09-29T08:11:05.300Z,10.00
2022-09-29T08:13:32.963Z,10.00
2022-09-29T08:16:00.522Z,10.00
2022-09-29T08:18:33.776Z,9.90
2022-09-29T08:21:03.688Z,9.90
2022-09-29T08:23:34.831Z,9.90
2022-09-29T08:26:10.052Z,10.00
2022-09-29T08:28:38.745Z,10.10
2022-09-29T08:31:07.994Z,10.10
2022-09-29T08:33:35.721Z,10.20
2022-09-29T08:36:05.733Z,10.30
2022-09-29T08:38:33.066Z,10.20
2022-09-29T08:41:05.020Z,10.30
2022-09-29T08:43:35.275Z,10.30
2022-09-29T08:46:08.266Z,10.40
2022-09-29T08:48:56.244Z,10.50
2022-09-29T08:51:42.342Z,10.60
2022-09-29T08:54:40.440Z,10.50
2022-09-29T08:57:20.210Z,10.70
2022-09-29T08:59:55.034Z,10.80
2022-09-29T09:02:45.888Z,10.80
2022-09-29T09:05:34.862Z,10.90
2022-09-29T09:08:16.927Z,10.80
2022-09-29T09:10:56.946Z,10.70
2022-09-29T09:13:52.790Z,10.80
2022-09-29T09:16:28.404Z,11.00
2022-09-29T09:19:19.224Z,11.10
2022-09-29T09:22:17.945Z,11.20
2022-09-29T09:24:56.762Z,11.30
2022-09-29T09:27:33.534Z,11.30
2022-09-29T09:30:20.421Z,11.50
2022-09-29T09:32:57.789Z,11.80
2022-09-29T09:35:34.414Z,12.00
2022-09-29T09:38:11.212Z,12.10
2022-09-29T09:40:44.968Z,12.10
2022-09-29T09:43:20.569Z,12.30
2022-09-29T09:45:57.938Z,12.80
2022-09-29T09:48:35.475Z,13.20
2022-09-29T09:51:21.797Z,13.40
2022-09-29T09:53:50.581Z,13.60
2022-09-29T09:56:38.786Z,13.70
2022-09-29T09:59:19.905Z,13.90
2022-09-29T10:01:46.797Z,14.10
2022-09-29T10:04:14.318Z,14.30
2022-09-29T10:06:41.701Z,14.50
2022-09-29T10:09:14.827Z,14.60
2022-09-29T10:11:43.934Z,14.80
2022-09-29T10:14:22.462Z,14.90
2022-09-29T10:17:02.688Z,15.00
2022-09-29T10:20:02.036Z,15.10
2022-09-29T10:22:30.317Z,15.20
2022-09-29T10:25:20.074Z,15.30
2022-09-29T10:27:49.717Z,15.30
2022-09-29T10:30:30.024Z,15.10
2022-09-29T10:33:00.252Z,15.30
2022-09-29T10:35:33.536Z,15.50
2022-09-29T10:38:20.068Z,15.60
2022-09-29T10:41:05.351Z,15.80
2022-09-29T10:43:40.097Z,15.90
2022-09-29T10:46:48.510Z,16.00
2022-09-29T10:49:21.157Z,15.90
2022-09-29T10:52:00.499Z,15.90
2022-09-29T10:54:29.677Z,16.10
2022-09-29T10:56:57.817Z,16.10
2022-09-29T10:59:25.670Z,16.10
2022-09-29T11:01:56.499Z,16.20
2022-09-29T11:04:28.475Z,16.30
2022-09-29T11:06:55.658Z,16.30
2022-09-29T11:09:22.497Z,16.20
2022-09-29T11:11:49.224Z,16.30
2022-09-29T11:14:30.525Z,16.30
2022-09-29T11:16:59.892Z,16.50
2022-09-29T11:19:27.588Z,16.60
2022-09-29T11:22:16.764Z,16.50
2022-09-29T11:25:14.018Z,16.60
2022-09-29T11:28:15.501Z,16.70
2022-09-29T11:30:54.456Z,16.40
2022-09-29T11:33:36.832Z,16.50
2022-09-29T11:36:22.282Z,16.30
2022-09-29T11:39:34.790Z,16.30
2022-09-29T11:42:29.391Z,16.60
2022-09-29T11:45:03.356Z,16.60
2022-09-29T11:47:53.276Z,16.70
2022-09-29T11:50:48.658Z,16.90
2022-09-29T11:53:33.301Z,17.00
2022-09-29T11:56:11.609Z,16.90
2022-09-29T11:58:56.469Z,16.70
2022-09-29T12:01:53.906Z,16.70
2022-09-29T12:04:55.349Z,16.90
2022-09-29T12:07:45.191Z,16.90
2022-09-29T12:10:53.117Z,16.90
2022-09-29T12:13:44.829Z,16.80
2022-09-29T12:16:25.187Z,16.70
2022-09-29T12:19:15.214Z,16.70
2022-09-29T12:21:46.887Z,16.90
2022-09-29T12:24:18.495Z,17.20
2022-09-29T12:26:48.922Z,17.40
2022-09-29T12:29:27.361Z,17.50
2022-09-29T12:31:56.335Z,17.50
2022-09-29T12:34:51.889Z,17.60
2022-09-29T12:37:27.394Z,17.50
2022-09-29T12:40:10.478Z,17.30
2022-09-29T12:42:43.144Z,17.10
2022-09-29T12:45:35.559Z,17.00
2022-09-29T12:48:17.319Z,16.90
2022-09-29T12:50:47.011Z,16.70
2022-09-29T12:53:35.935Z,16.50
2022-09-29T12:56:38.066Z,16.40
2022-09-29T12:59:09.486Z,16.30
2022-09-29T13:01:38.216Z,16.20
2022-09-29T13:04:21.640Z,16.10
2022-09-29T13:07:02.051Z,16.10
2022-09-29T13:09:49.930Z,16.10
2022-09-29T13:12:25.073Z,16.30
2022-09-29T13:14:57.521Z,16.40
2022-09-29T13:18:08.923Z,16.50
2022-09-29T13:21:02.883Z,16.60
2022-09-29T13:23:49.606Z,16.80
2022-09-29T13:26:45.938Z,16.90
2022-09-29T13:29:19.734Z,17.10
2022-09-29T13:31:47.785Z,17.10
2022-09-29T13:34:36.780Z,17.20
2022-09-29T13:37:08.101Z,17.30
2022-09-29T13:39:35.292Z,17.10
2022-09-29T13:42:27.538Z,17.10
2022-09-29T13:45:37.059Z,17.20
2022-09-29T13:48:32.256Z,17.20
2022-09-29T13:51:18.885Z,17.10
2022-09-29T13:53:45.573Z,17.10
2022-09-29T13:56:20.722Z,17.10
2022-09-29T13:58:47.321Z,17.10
2022-09-29T14:01:36.196Z,17.10
2022-09-29T14:04:34.390Z,17.10
2022-09-29T14:07:06.055Z,17.10
2022-09-29T14:09:39.548Z,17.10
2022-09-29T14:12:18.199Z,17.10
2022-09-29T14:14:53.857Z,16.90
2022-09-29T14:17:37.019Z,17.00
2022-09-29T14:20:37.202Z,17.00
2022-09-29T14:23:08.077Z,16.90
2022-09-29T14:25:53.556Z,17.00
2022-09-29T14:28:32.467Z,17.00
2022-09-29T14:31:02.909Z,17.00
2022-09-29T14:33:36.950Z,17.00
2022-09-29T14:36:14.379Z,16.80
2022-09-29T14:38:42.726Z,16.70
2022-09-29T14:41:10.202Z,16.80
2022-09-29T14:43:55.073Z,16.90
2022-09-29T14:47:20.999Z,16.80
2022-09-29T14:50:12.617Z,16.70
2022-09-29T14:52:55.660Z,16.60
2022-09-29T14:55:41.208Z,16.60
2022-09-29T14:58:19.789Z,16.50
2022-09-29T15:00:56.636Z,16.50
2022-09-29T15:03:39.736Z,16.50
2022-09-29T15:06:18.664Z,16.50
2022-09-29T15:08:54.511Z,16.40
2022-09-29T15:11:43.214Z,16.30
2022-09-29T15:14:28.858Z,16.20
2022-09-29T15:17:14.725Z,16.20
2022-09-29T15:19:55.800Z,16.10
2022-09-29T15:22:41.762Z,16.10
2022-09-29T15:25:10.554Z,16.00
2022-09-29T15:27:39.799Z,16.00
2022-09-29T15:30:16.878Z,16.00
2022-09-29T15:32:49.571Z,15.90
2022-09-29T15:35:26.634Z,15.90
2022-09-29T15:38:02.283Z,16.00
2022-09-29T15:40:37.437Z,16.00
2022-09-29T15:43:19.044Z,16.00
2022-09-29T15:45:55.270Z,15.90
2022-09-29T15:48:21.960Z,15.90
2022-09-29T15:50:50.732Z,16.00
2022-09-29T15:53:17.606Z,15.90
2022-09-29T15:55:44.297Z,15.90
2022-09-29T15:58:44.214Z,15.90
2022-09-29T16:01:13.650Z,15.90
2022-09-29T16:03:52.673Z,15.80
2022-09-29T16:06:35.641Z,15.80
2022-09-29T16:11:39.894Z,15.70
2022-09-29T16:14:24.040Z,15.60
2022-09-29T16:16:53.932Z,15.60
2022-09-29T16:19:27.605Z,15.60
2022-09-29T16:22:03.067Z,15.60
2022-09-29T16:24:32.378Z,15.60
2022-09-29T16:26:59.443Z,15.60
2022-09-29T16:29:30.358Z,15.50
2022-09-29T16:31:58.167Z,15.50
2022-09-29T16:34:31.026Z,15.50
2022-09-29T16:37:03.962Z,15.40
2022-09-29T16:39:44.088Z,15.40
2022-09-29T16:42:25.564Z,15.30
2022-09-29T16:44:54.434Z,15.30
2022-09-29T16:47:30.109Z,15.20
2022-09-29T16:50:12.492Z,15.10
2022-09-29T16:52:47.949Z,15.00
2022-09-29T16:55:17.481Z,14.90
2022-09-29T16:58:04.862Z,14.80
2022-09-29T17:00:31.943Z,14.80
2022-09-29T17:02:58.700Z,14.70
2022-09-29T17:05:26.369Z,14.60
2022-09-29T17:08:04.284Z,14.50
2022-09-29T17:10:31.370Z,14.50
2022-09-29T17:12:58.099Z,14.40
2022-09-29T17:15:25.927Z,14.30
2022-09-29T17:17:52.748Z,14.20
2022-09-29T17:20:29.598Z,14.20
2022-09-29T17:22:59.095Z,14.10
2022-09-29T17:25:25.771Z,14.00
2022-09-29T17:28:10.838Z,14.00
2022-09-29T17:30:38.237Z,13.90
2022-09-29T17:33:04.968Z,13.80
2022-09-29T17:35:36.589Z,13.70
2022-09-29T17:38:07.386Z,13.60
2022-09-29T17:40:46.162Z,13.60
2022-09-29T17:43:12.814Z,13.50
2022-09-29T17:45:44.242Z,13.40
2022-09-29T17:48:11.973Z,13.40
2022-09-29T17:50:45.908Z,13.30
2022-09-29T17:53:16.571Z,13.20
2022-09-29T17:55:45.940Z,13.20
2022-09-29T17:58:17.234Z,13.10
2022-09-29T18:00:52.526Z,13.10
2022-09-29T18:03:20.674Z,13.00
2022-09-29T18:05:55.809Z,13.00
2022-09-29T18:08:25.072Z,12.90
2022-09-29T18:10:54.383Z,12.90
2022-09-29T18:13:22.906Z,12.80
2022-09-29T18:15:50.273Z,12.70
2022-09-29T18:18:19.306Z,12.60
2022-09-29T18:20:47.127Z,12.60
2022-09-29T18:23:17.787Z,12.50
2022-09-29T18:25:47.921Z,12.50
2022-09-29T18:28:16.302Z,12.50
2022-09-29T18:30:45.284Z,12.50
2022-09-29T18:33:14.683Z,12.40
2022-09-29T18:35:43.561Z,12.40
2022-09-29T18:38:11.081Z,12.30
2022-09-29T18:40:39.288Z,12.30
2022-09-29T18:43:07.297Z,12.20
2022-09-29T18:45:38.168Z,12.20
2022-09-29T18:48:06.805Z,12.20
2022-09-29T18:50:39.109Z,12.20
2022-09-29T18:53:06.150Z,12.10
2022-09-29T18:55:33.027Z,12.10
2022-09-29T18:58:00.458Z,12.00
2022-09-29T19:00:33.855Z,12.00
2022-09-29T19:03:02.620Z,11.90
2022-09-29T19:05:31.593Z,11.90
2022-09-29T19:08:00.949Z,11.80
2022-09-29T19:10:32.585Z,11.80
2022-09-29T19:13:16.045Z,11.70
2022-09-29T19:15:44.674Z,11.70
2022-09-29T19:18:22.360Z,11.60
2022-09-29T19:20:55.368Z,11.60
2022-09-29T19:23:22.916Z,11.60
2022-09-29T19:25:51.274Z,11.60
2022-09-29T19:28:19.310Z,11.50
2022-09-29T19:30:46.281Z,11.50
2022-09-29T19:33:16.819Z,11.40
2022-09-29T19:35:54.357Z,11.30
2022-09-29T19:38:22.206Z,11.30
2022-09-29T19:40:49.440Z,11.20
2022-09-29T19:43:16.157Z,11.20
2022-09-29T19:45:43.637Z,11.20
2022-09-29T19:48:15.549Z,11.10
2022-09-29T19:51:01.235Z,11.10
2022-09-29T19:53:28.668Z,11.10
2022-09-29T19:55:55.385Z,11.00
2022-09-29T19:58:22.986Z,11.00
2022-09-29T20:00:49.962Z,10.90
2022-09-29T20:03:16.649Z,10.90
2022-09-29T20:05:43.431Z,10.90
2022-09-29T20:08:10.131Z,10.90
2022-09-29T20:10:36.878Z,10.80
2022-09-29T20:13:03.611Z,10.80
2022-09-29T20:15:30.541Z,10.80
2022-09-29T20:17:57.207Z,10.70
2022-09-29T20:20:24.002Z,10.70
2022-09-29T20:22:51.490Z,10.70
2022-09-29T20:25:18.265Z,10.60
2022-09-29T20:27:44.937Z,10.60
2022-09-29T20:30:11.810Z,10.50
2022-09-29T20:32:38.632Z,10.50
2022-09-29T20:35:06.149Z,10.50
2022-09-29T20:37:33.111Z,10.50
2022-09-29T20:40:00.336Z,10.40
2022-09-29T20:42:27.228Z,10.40
2022-09-29T20:44:55.950Z,10.30
2022-09-29T20:47:26.760Z,10.40
2022-09-29T20:49:55.079Z,10.30
2022-09-29T20:52:25.345Z,10.20
2022-09-29T20:54:52.076Z,10.20
2022-09-29T20:57:18.761Z,10.20
2022-09-29T20:59:45.543Z,10.10
2022-09-29T21:02:13.366Z,10.10
2022-09-29T21:04:42.325Z,10.00
2022-09-29T21:07:29.172Z,10.00
2022-09-29T21:09:55.841Z,10.00
2022-09-29T21:12:22.540Z,9.90
2022-09-29T21:14:49.820Z,9.90
2022-09-29T21:17:16.562Z,9.80
2022-09-29T21:19:43.369Z,9.80
2022-09-29T21:22:10.457Z,9.80
2022-09-29T21:24:39.263Z,9.80
2022-09-29T21:27:07.412Z,9.80
2022-09-29T21:29:34.105Z,9.70
2022-09-29T21:32:02.027Z,9.80
2022-09-29T21:34:28.729Z,9.80
2022-09-29T21:36:55.559Z,9.70
2022-09-29T21:39:22.301Z,9.70
2022-09-29T21:41:49.009Z,9.70
2022-09-29T21:44:18.544Z,9.70
2022-09-29T21:46:46.007Z,9.70
2022-09-29T21:49:16.026Z,9.60
2022-09-29T21:51:45.477Z,9.60
2022-09-29T21:54:14.713Z,9.60
2022-09-29T21:56:43.534Z,9.50
2022-09-29T21:59:11.607Z,9.50
2022-09-29T22:01:39.955Z,9.50
2022-09-29T22:04:07.941Z,9.50
2022-09-29T22:06:37.174Z,9.40
2022-09-29T22:09:05.573Z,9.40
2022-09-29T22:11:36.076Z,9.40
2022-09-29T22:14:03.229Z,9.40
2022-09-29T22:16:32.655Z,9.40
2022-09-29T22:21:48.653Z,9.40
2022-09-29T22:24:15.403Z,9.30
2022-09-29T22:26:42.086Z,9.30
2022-09-29T22:29:08.847Z,9.30
2022-09-29T22:31:35.633Z,9.30
2022-09-29T22:34:05.087Z,9.20
2022-09-29T22:36:34.135Z,9.20
2022-09-29T22:39:01.797Z,9.10
2022-09-29T22:41:29.111Z,9.10
2022-09-29T22:43:58.901Z,9.10
2022-09-29T22:46:28.598Z,9.10
2022-09-29T22:48:55.822Z,9.00
2022-09-29T22:51:22.511Z,9.00
2022-09-29T22:53:49.937Z,9.00
2022-09-29T22:56:18.862Z,9.00
2022-09-29T22:58:47.674Z,9.00
2022-09-29T23:01:16.417Z,9.00
2022-09-29T23:03:45.346Z,8.90
2022-09-29T23:06:13.369Z,8.90
2022-09-29T23:08:40.575Z,8.90
2022-09-29T23:11:08.622Z,8.90
2022-09-29T23:13:40.705Z,8.90
2022-09-29T23:16:12.339Z,8.80
2022-09-29T23:18:44.913Z,8.90
2022-09-29T23:21:14.802Z,8.80
2022-09-29T23:23:41.733Z,8.80
2022-09-29T23:26:08.548Z,8.70
2022-09-29T23:28:35.724Z,8.70
2022-09-29T23:31:07.017Z,8.70
2022-09-29T23:33:34.113Z,8.70
2022-09-29T23:36:11.055Z,8.80
2022-09-29T23:39:01.478Z,8.70
2022-09-29T23:41:30.415Z,8.70
2022-09-29T23:44:04.316Z,8.70
2022-09-29T23:46:35.420Z,8.70
2022-09-29T23:49:08.872Z,8.60
2022-09-29T23:51:37.356Z,8.60
2022-09-29T23:54:05.013Z,8.60
2022-09-29T23:56:32.061Z,8.60
2022-09-29T23:58:58.709Z,8.60
